Portada
METAR-TAF:

METAR-TAF

Aeroports :

Aeroport Internacional Maiquetía Simón Bolívar

Caracas, Veneçuela

latitud: 10-36N, longitud: 066-59W, altitud: 43 m

Observació

L'informe es va fer fa 32 minuts, a les 09:00 UTC
Vent 2 kt del Est
Temperatura 23°C
Humitat 83%
Pressió 1013 hPa
Visibilitat 10 km o més
Escasses núvols a una alçada de 1600 ft

METAR: SVMI 200900Z 09002KT 9999 FEW016 23/20 Q1013

Hora: 05:32 (09:32 UTC)

Pronòstic

L'informe es va fer fa 11 hores i 32 minuts, a les 22:00 UTC
Pronòstic vàlid del 20 a les 00 UTC al 21 a les 00 UTC
Vent 3 kt del Est/Nord-Est
Visibilitat: 9000 m
Escasses núvols a una alçada de 1600 ft
Núvols disperses a una alçada de 7000 ft
Núvols disperses a una alçada de 1600 ft
plugim

TAF: SVMI 192200Z 2000/2100 09004KT 9999 FEW016 SCT070 TX32/17Z TN24/10ZBECMG 2001/2005 07003KT 9000 DZ SCT016

Observacions i pronòstics meteorològics de més de 4000 aeroports (METAR i TAF).

Les estacions disponibles són els punts grocs i vermells al mapa.

Posi el ratolí al punt desitjat per veure el nom de l'estació.

Feu clic per veure les observacions i els pronòstics meteorològics.

Per canviar el mapa: feu clic els botons verds amb una creu de color negre per apropar; al botó verd amb un guió per allunyar la imatge; o en les fletxes verdes per a mapes adjacents.


METAR-TAF: